createdAt,value
2023-03-20T00:01:57.872Z,3.73
2023-03-20T00:04:25.953Z,3.23
2023-03-20T00:06:54.698Z,3.60
2023-03-20T00:09:22.360Z,3.80
2023-03-20T00:11:51.611Z,3.97
2023-03-20T00:14:22.449Z,3.90
2023-03-20T00:16:51.286Z,3.27
2023-03-20T00:19:20.717Z,4.07
2023-03-20T00:21:48.578Z,3.80
2023-03-20T00:24:18.149Z,3.97
2023-03-20T00:26:47.342Z,4.80
2023-03-20T00:29:21.586Z,4.00
2023-03-20T00:31:49.438Z,4.20
2023-03-20T00:34:19.301Z,3.63
2023-03-20T00:36:47.406Z,4.03
2023-03-20T00:39:14.915Z,4.37
2023-03-20T00:41:49.962Z,4.17
2023-03-20T00:44:24.825Z,4.33
2023-03-20T00:46:55.455Z,4.23
2023-03-20T00:49:26.274Z,4.27
2023-03-20T00:51:53.692Z,3.97
2023-03-20T00:54:21.332Z,4.83
2023-03-20T00:56:56.501Z,4.90
2023-03-20T00:59:27.792Z,4.40
2023-03-20T01:01:56.522Z,5.10
2023-03-20T01:04:24.011Z,5.13
2023-03-20T01:06:52.538Z,4.57
2023-03-20T01:09:19.986Z,5.53
2023-03-20T01:11:47.660Z,4.77
2023-03-20T01:14:17.940Z,4.87
2023-03-20T01:16:45.540Z,4.90
2023-03-20T01:19:14.575Z,4.70
2023-03-20T01:21:42.285Z,4.50
2023-03-20T01:24:10.097Z,4.70
2023-03-20T01:26:40.210Z,4.90
2023-03-20T01:29:19.992Z,4.90
2023-03-20T01:31:47.606Z,4.50
2023-03-20T01:34:16.337Z,5.17
2023-03-20T01:36:47.418Z,5.63
2023-03-20T01:39:15.001Z,5.30
2023-03-20T01:41:42.590Z,5.40
2023-03-20T01:44:22.196Z,4.90
2023-03-20T01:46:50.902Z,5.53
2023-03-20T01:49:55.631Z,5.50
2023-03-20T01:52:23.082Z,5.27
2023-03-20T01:54:50.854Z,5.57
2023-03-20T01:57:21.505Z,5.63
2023-03-20T01:59:53.152Z,5.47
2023-03-20T02:02:23.607Z,5.50
2023-03-20T02:04:56.330Z,5.33
2023-03-20T02:07:24.634Z,5.13
2023-03-20T02:09:52.612Z,5.90
2023-03-20T02:12:21.340Z,5.57
2023-03-20T02:14:52.089Z,6.17
2023-03-20T02:17:20.073Z,6.30
2023-03-20T02:19:59.298Z,6.10
2023-03-20T02:23:12.922Z,5.80
2023-03-20T02:26:16.223Z,5.87
2023-03-20T02:29:38.030Z,5.93
2023-03-20T02:32:50.708Z,5.23
2023-03-20T02:35:33.808Z,5.47
2023-03-20T02:38:16.641Z,6.27
2023-03-20T02:40:48.935Z,6.13
2023-03-20T02:43:25.260Z,6.20
2023-03-20T02:45:56.977Z,6.93
2023-03-20T02:48:40.130Z,8.40
2023-03-20T02:51:17.015Z,7.03
2023-03-20T02:53:54.193Z,6.77
2023-03-20T02:56:30.959Z,6.30
2023-03-20T02:59:06.600Z,6.10
2023-03-20T03:01:39.076Z,6.43
2023-03-20T03:04:11.157Z,6.17
2023-03-20T03:06:41.702Z,6.30
2023-03-20T03:09:17.227Z,6.47
2023-03-20T03:11:50.471Z,6.70
2023-03-20T03:14:23.006Z,6.27
2023-03-20T03:16:53.187Z,6.37
2023-03-20T03:19:24.997Z,6.03
2023-03-20T03:21:52.925Z,6.90
2023-03-20T03:24:39.835Z,6.97
2023-03-20T03:27:14.125Z,6.60
2023-03-20T03:29:42.866Z,7.33
2023-03-20T03:32:24.436Z,7.27
2023-03-20T03:34:51.984Z,15.77
2023-03-20T03:37:28.026Z,11.00
2023-03-20T03:40:06.355Z,7.03
2023-03-20T03:42:38.547Z,7.20
2023-03-20T03:45:12.822Z,7.50
2023-03-20T03:47:46.172Z,7.00
2023-03-20T03:50:17.900Z,8.17
2023-03-20T03:52:47.511Z,7.10
2023-03-20T03:55:22.918Z,7.60
2023-03-20T03:57:54.833Z,7.43
2023-03-20T04:00:26.079Z,7.93
2023-03-20T04:02:55.976Z,7.07
2023-03-20T04:05:25.790Z,7.30
2023-03-20T04:07:56.277Z,7.57
2023-03-20T04:10:25.521Z,7.80
2023-03-20T04:12:52.944Z,8.10
2023-03-20T04:15:21.686Z,7.43
2023-03-20T04:17:49.184Z,7.50
2023-03-20T04:20:17.396Z,7.40
2023-03-20T04:22:44.813Z,7.43
2023-03-20T04:25:18.308Z,7.37
2023-03-20T04:27:47.141Z,7.37
2023-03-20T04:30:15.269Z,7.63
2023-03-20T04:32:42.732Z,7.57
2023-03-20T04:35:10.708Z,7.70
2023-03-20T04:37:38.175Z,8.30
2023-03-20T04:40:06.585Z,7.73
2023-03-20T04:42:34.001Z,7.93
2023-03-20T04:45:02.844Z,8.20
2023-03-20T04:47:30.230Z,6.93
2023-03-20T04:49:57.782Z,7.90
2023-03-20T04:52:25.600Z,8.63
2023-03-20T04:54:53.053Z,9.17
2023-03-20T04:57:20.616Z,8.27
2023-03-20T04:59:48.085Z,8.53
2023-03-20T05:02:17.940Z,9.47
2023-03-20T05:04:45.449Z,9.40
2023-03-20T05:07:12.895Z,9.50
2023-03-20T05:09:40.345Z,9.80
2023-03-20T05:12:08.489Z,9.27
2023-03-20T05:14:36.019Z,10.50
2023-03-20T05:17:03.521Z,10.30
2023-03-20T05:19:32.319Z,10.70
2023-03-20T05:21:59.735Z,11.37
2023-03-20T05:24:29.012Z,9.27
2023-03-20T05:26:56.450Z,8.60
2023-03-20T05:29:24.507Z,10.03
2023-03-20T05:31:51.918Z,8.37
2023-03-20T05:34:19.320Z,10.50
2023-03-20T05:36:48.126Z,11.73
2023-03-20T05:39:15.724Z,10.90
2023-03-20T05:41:45.749Z,11.10
2023-03-20T05:44:13.366Z,12.10
2023-03-20T05:46:41.021Z,13.03
2023-03-20T05:49:08.516Z,11.57
2023-03-20T05:51:36.078Z,11.70
2023-03-20T05:54:05.178Z,14.57
2023-03-20T05:56:32.638Z,14.70
2023-03-20T05:59:00.118Z,14.40
2023-03-20T06:01:27.523Z,14.53
2023-03-20T06:03:54.979Z,14.33
2023-03-20T06:06:22.383Z,16.00
2023-03-20T06:08:49.811Z,16.80
2023-03-20T06:11:18.676Z,17.47
2023-03-20T06:13:46.216Z,16.93
2023-03-20T06:16:13.710Z,18.07
2023-03-20T06:18:41.214Z,16.97
2023-03-20T06:21:09.365Z,18.00
2023-03-20T06:23:36.849Z,19.07
2023-03-20T06:26:04.605Z,18.20
2023-03-20T06:28:33.358Z,21.13
2023-03-20T06:31:01.058Z,23.70
2023-03-20T06:33:28.892Z,24.47
2023-03-20T06:35:56.365Z,24.53
2023-03-20T06:38:23.790Z,27.17
2023-03-20T06:40:51.215Z,26.13
2023-03-20T06:43:19.254Z,30.57
2023-03-20T06:45:48.425Z,29.37
2023-03-20T06:48:21.799Z,32.03
2023-03-20T06:50:49.584Z,33.60
2023-03-20T06:53:17.291Z,35.13
2023-03-20T06:55:48.240Z,31.90
2023-03-20T06:58:15.843Z,34.30
2023-03-20T07:00:43.540Z,29.20
2023-03-20T07:03:12.574Z,32.33
2023-03-20T07:05:40.288Z,32.67
2023-03-20T07:08:08.317Z,30.73
2023-03-20T07:10:36.083Z,29.27
2023-03-20T07:13:03.556Z,30.97
2023-03-20T07:15:31.094Z,30.90
2023-03-20T07:17:58.490Z,30.10
2023-03-20T07:20:27.574Z,30.10
2023-03-20T07:22:55.425Z,28.70
2023-03-20T07:25:35.372Z,29.13
2023-03-20T07:28:07.012Z,30.87
2023-03-20T07:30:34.477Z,31.53
2023-03-20T07:33:01.890Z,27.23
2023-03-20T07:35:30.942Z,25.07
2023-03-20T07:37:58.436Z,26.23
2023-03-20T07:40:25.914Z,26.53
2023-03-20T07:42:53.363Z,25.90
2023-03-20T07:45:20.795Z,27.13
2023-03-20T07:47:48.715Z,28.50
2023-03-20T07:50:17.122Z,25.17
2023-03-20T07:52:48.497Z,26.40
2023-03-20T07:55:18.477Z,26.50
2023-03-20T07:57:46.171Z,25.67
2023-03-20T08:00:15.196Z,28.67
2023-03-20T08:02:42.794Z,25.70
2023-03-20T08:05:10.870Z,27.63
2023-03-20T08:07:38.400Z,26.30
2023-03-20T08:10:08.149Z,26.83
2023-03-20T08:12:35.717Z,25.73
2023-03-20T08:15:03.211Z,24.57
2023-03-20T08:17:30.739Z,26.67
2023-03-20T08:19:58.264Z,25.43
2023-03-20T08:22:25.936Z,18.60
2023-03-20T08:24:53.546Z,12.20
2023-03-20T08:27:22.364Z,12.87
2023-03-20T08:29:49.760Z,15.20
2023-03-20T08:32:17.160Z,15.93
2023-03-20T08:34:44.683Z,16.13
2023-03-20T08:37:12.397Z,19.93
2023-03-20T08:39:40.170Z,21.92
2023-03-20T08:42:08.390Z,23.50
2023-03-20T08:44:37.164Z,24.47
2023-03-20T08:47:05.504Z,24.00
2023-03-20T08:49:32.942Z,23.00
2023-03-20T08:52:00.619Z,23.10
2023-03-20T08:54:28.202Z,22.33
2023-03-20T08:56:55.724Z,20.43
2023-03-20T08:59:23.182Z,20.37
2023-03-20T09:01:51.980Z,20.90
2023-03-20T09:04:19.862Z,19.40
2023-03-20T09:06:47.676Z,20.50
2023-03-20T09:09:16.230Z,20.67
2023-03-20T09:11:43.760Z,18.67
2023-03-20T09:14:11.549Z,19.07
2023-03-20T09:16:39.328Z,18.80
2023-03-20T09:19:08.075Z,18.50
2023-03-20T09:21:35.502Z,17.07
2023-03-20T09:24:03.364Z,15.27
2023-03-20T09:26:31.001Z,16.67
2023-03-20T09:28:58.456Z,16.27
2023-03-20T09:31:25.964Z,17.50
2023-03-20T09:33:53.535Z,17.03
2023-03-20T09:36:22.270Z,15.83
2023-03-20T09:38:49.748Z,16.70
2023-03-20T09:41:21.621Z,14.20
2023-03-20T09:44:06.208Z,14.73
2023-03-20T09:46:49.684Z,14.97
2023-03-20T09:49:28.114Z,15.67
2023-03-20T09:51:59.675Z,15.03
2023-03-20T09:54:32.391Z,14.37
2023-03-20T09:57:04.346Z,14.80
2023-03-20T09:59:35.493Z,12.17
2023-03-20T10:02:09.076Z,12.30
2023-03-20T10:04:37.859Z,11.83
2023-03-20T10:07:06.975Z,11.57
2023-03-20T10:09:34.694Z,12.10
2023-03-20T10:12:18.184Z,11.43
2023-03-20T10:14:58.049Z,11.37
2023-03-20T10:17:39.528Z,12.23
2023-03-20T10:20:14.536Z,10.57
2023-03-20T10:22:48.219Z,10.93
2023-03-20T10:25:24.569Z,11.77
2023-03-20T10:27:57.057Z,10.73
2023-03-20T10:30:34.740Z,11.33
2023-03-20T10:33:16.833Z,11.53
2023-03-20T10:35:48.782Z,9.97
2023-03-20T10:38:33.261Z,10.20
2023-03-20T10:41:00.774Z,10.27
2023-03-20T10:43:32.916Z,11.03
2023-03-20T10:46:05.346Z,11.60
2023-03-20T10:48:38.112Z,9.60
2023-03-20T10:51:07.539Z,9.87
2023-03-20T10:53:42.867Z,8.90
2023-03-20T10:56:17.031Z,9.10
2023-03-20T10:58:48.760Z,8.93
2023-03-20T11:01:16.559Z,8.50
2023-03-20T11:03:44.142Z,8.63
2023-03-20T11:06:20.115Z,8.60
2023-03-20T11:08:51.995Z,8.53
2023-03-20T11:11:24.617Z,8.27
2023-03-20T11:13:52.038Z,8.43
2023-03-20T11:16:23.365Z,9.03
2023-03-20T11:18:53.884Z,7.53
2023-03-20T11:21:24.204Z,8.53
2023-03-20T11:23:53.910Z,7.70
2023-03-20T11:26:33.488Z,8.73
2023-03-20T11:29:01.619Z,8.27
2023-03-20T11:31:35.321Z,8.77
2023-03-20T11:34:12.260Z,9.23
2023-03-20T11:36:41.312Z,9.00
2023-03-20T11:39:14.906Z,9.63
2023-03-20T11:41:47.451Z,9.80
2023-03-20T11:44:28.271Z,9.23
2023-03-20T11:46:57.737Z,9.20
2023-03-20T11:49:27.696Z,8.97
2023-03-20T11:51:58.572Z,10.23
2023-03-20T11:54:28.733Z,9.03
2023-03-20T11:56:58.012Z,8.70
2023-03-20T11:59:30.670Z,9.33
2023-03-20T12:01:59.205Z,9.47
2023-03-20T12:04:30.606Z,9.53
2023-03-20T12:07:02.350Z,9.43
2023-03-20T12:09:43.413Z,9.00
2023-03-20T12:12:20.287Z,9.70
2023-03-20T12:14:58.040Z,8.67
2023-03-20T12:17:43.750Z,9.27
2023-03-20T12:20:27.014Z,9.40
2023-03-20T12:23:00.962Z,9.87
2023-03-20T12:25:36.369Z,9.57
2023-03-20T12:28:06.633Z,10.27
2023-03-20T12:30:49.832Z,9.90
2023-03-20T12:33:22.696Z,9.97
2023-03-20T12:35:54.638Z,10.67
2023-03-20T12:38:28.329Z,10.27
2023-03-20T12:41:05.717Z,10.37
2023-03-20T12:43:45.355Z,11.50
2023-03-20T12:46:24.519Z,12.30
2023-03-20T12:49:06.837Z,11.10
2023-03-20T12:51:47.409Z,11.17
2023-03-20T12:54:32.024Z,11.53
2023-03-20T12:57:09.480Z,11.10
2023-03-20T12:59:51.882Z,11.03
2023-03-20T13:02:31.292Z,10.63
2023-03-20T13:05:10.277Z,11.63
2023-03-20T13:07:51.618Z,11.83
2023-03-20T13:10:22.239Z,11.73
2023-03-20T13:13:05.585Z,12.37
2023-03-20T13:15:45.830Z,13.63
2023-03-20T13:18:20.854Z,13.00
2023-03-20T13:20:52.093Z,12.27
2023-03-20T13:23:24.206Z,13.13
2023-03-20T13:26:04.428Z,12.50
2023-03-20T13:28:40.201Z,13.47
2023-03-20T13:31:21.789Z,13.30
2023-03-20T13:33:57.540Z,12.40
2023-03-20T13:36:48.298Z,13.30
2023-03-20T13:39:21.358Z,12.10
2023-03-20T13:41:50.642Z,13.80
2023-03-20T13:44:22.602Z,13.33
2023-03-20T13:46:53.553Z,13.53
2023-03-20T13:49:26.497Z,13.33
2023-03-20T13:52:00.239Z,12.17
2023-03-20T13:54:48.318Z,13.70
2023-03-20T13:57:29.110Z,14.30
2023-03-20T14:00:17.969Z,13.67
2023-03-20T14:03:03.163Z,14.03
2023-03-20T14:05:37.596Z,13.20
2023-03-20T14:08:37.795Z,13.60
2023-03-20T14:11:15.272Z,14.57
2023-03-20T14:13:48.843Z,14.00
2023-03-20T14:16:20.786Z,13.53
2023-03-20T14:18:50.039Z,13.27
2023-03-20T14:21:21.681Z,13.70
2023-03-20T14:23:51.447Z,12.20
2023-03-20T14:26:22.857Z,13.40
2023-03-20T14:28:56.079Z,14.77
2023-03-20T14:31:30.496Z,13.70
2023-03-20T14:34:01.500Z,15.00
2023-03-20T14:36:41.482Z,14.17
2023-03-20T14:39:20.848Z,13.93
2023-03-20T14:42:01.577Z,14.60
2023-03-20T14:44:39.913Z,15.13
2023-03-20T14:47:23.411Z,14.47
2023-03-20T14:49:54.447Z,14.10
2023-03-20T14:52:46.292Z,15.80
2023-03-20T14:55:31.463Z,14.53
2023-03-20T14:58:03.272Z,15.03
2023-03-20T15:00:35.845Z,16.20
2023-03-20T15:03:09.960Z,15.10
2023-03-20T15:05:39.780Z,14.93
2023-03-20T15:08:11.335Z,14.60
2023-03-20T15:10:46.440Z,16.17
2023-03-20T15:13:15.867Z,15.07
2023-03-20T15:15:54.936Z,16.30
2023-03-20T15:18:25.981Z,14.43
2023-03-20T15:20:54.935Z,15.47
2023-03-20T15:23:22.393Z,15.67
2023-03-20T15:25:51.689Z,16.30
2023-03-20T15:28:21.715Z,15.50
2023-03-20T15:30:51.153Z,16.60
2023-03-20T15:33:27.281Z,14.43
2023-03-20T15:35:56.718Z,15.80
2023-03-20T15:38:29.320Z,14.93
2023-03-20T15:40:57.159Z,15.23
2023-03-20T15:43:27.087Z,16.03
2023-03-20T15:46:14.170Z,15.40
2023-03-20T15:48:48.318Z,15.77
2023-03-20T15:51:18.150Z,15.60
2023-03-20T15:53:48.334Z,16.33
2023-03-20T15:56:19.215Z,15.50
2023-03-20T15:58:49.819Z,14.20
2023-03-20T16:01:19.985Z,14.47
2023-03-20T16:03:48.442Z,13.77
2023-03-20T16:06:21.051Z,13.60
2023-03-20T16:08:58.169Z,14.80
2023-03-20T16:11:25.732Z,14.77
2023-03-20T16:13:55.976Z,14.77
2023-03-20T16:16:25.245Z,15.37
2023-03-20T16:18:52.769Z,14.33
2023-03-20T16:21:25.431Z,15.40
2023-03-20T16:23:55.774Z,14.87
2023-03-20T16:26:25.956Z,13.87
2023-03-20T16:28:56.027Z,14.23
2023-03-20T16:31:28.311Z,13.97
2023-03-20T16:33:59.874Z,14.47
2023-03-20T16:36:30.433Z,14.77
2023-03-20T16:38:59.781Z,14.87
2023-03-20T16:41:31.711Z,19.60
2023-03-20T16:43:59.542Z,15.17
2023-03-20T16:46:29.006Z,16.13
2023-03-20T16:48:58.934Z,14.93
2023-03-20T16:51:28.060Z,15.83
2023-03-20T16:53:59.093Z,15.90
2023-03-20T16:56:29.988Z,15.07
2023-03-20T16:58:57.983Z,13.97
2023-03-20T17:01:29.667Z,16.17
2023-03-20T17:03:59.070Z,15.83
2023-03-20T17:06:35.673Z,15.97
2023-03-20T17:09:18.707Z,16.60
2023-03-20T17:11:50.203Z,16.80
2023-03-20T17:14:18.365Z,15.47
2023-03-20T17:16:45.789Z,15.90
2023-03-20T17:19:16.775Z,16.40
2023-03-20T17:21:44.396Z,16.53
2023-03-20T17:24:14.430Z,15.80
2023-03-20T17:26:44.992Z,15.97
2023-03-20T17:29:13.046Z,16.73
2023-03-20T17:31:40.709Z,16.53
2023-03-20T17:34:08.214Z,16.87
2023-03-20T17:36:36.300Z,16.47
2023-03-20T17:39:04.147Z,42.67
2023-03-20T17:41:32.896Z,23.37
2023-03-20T17:44:00.589Z,25.17
2023-03-20T17:46:30.507Z,17.77
2023-03-20T17:49:00.386Z,16.87
2023-03-20T17:51:27.820Z,16.70
2023-03-20T17:53:57.760Z,17.63
2023-03-20T17:56:29.909Z,15.93
2023-03-20T17:58:58.963Z,16.03
2023-03-20T18:01:27.211Z,16.97
2023-03-20T18:03:55.054Z,16.73
2023-03-20T18:06:27.017Z,16.10
2023-03-20T18:08:55.027Z,16.53
2023-03-20T18:11:22.549Z,14.57
2023-03-20T18:13:50.159Z,13.10
2023-03-20T18:16:21.572Z,14.53
2023-03-20T18:18:49.718Z,12.37
2023-03-20T18:21:17.632Z,11.63
2023-03-20T18:23:45.896Z,11.13
2023-03-20T18:26:22.290Z,12.67
2023-03-20T18:28:51.264Z,10.37
2023-03-20T18:31:20.958Z,11.30
2023-03-20T18:33:49.266Z,11.70
2023-03-20T18:36:18.580Z,11.13
2023-03-20T18:38:46.245Z,10.93
2023-03-20T18:41:14.326Z,10.43
2023-03-20T18:43:42.115Z,10.20
2023-03-20T18:46:14.092Z,10.73
2023-03-20T18:48:43.486Z,11.63
2023-03-20T18:51:10.976Z,11.77
2023-03-20T18:53:40.631Z,10.83
2023-03-20T18:56:12.740Z,10.90
2023-03-20T18:58:40.400Z,10.23
2023-03-20T19:01:08.057Z,9.07
2023-03-20T19:03:39.270Z,9.23
2023-03-20T19:06:13.703Z,10.90
2023-03-20T19:08:41.145Z,10.20
2023-03-20T19:11:14.851Z,12.40
2023-03-20T19:13:44.979Z,10.83
2023-03-20T19:16:21.904Z,10.13
2023-03-20T19:18:51.153Z,10.83
2023-03-20T19:21:25.795Z,10.63
2023-03-20T19:23:53.978Z,10.00
2023-03-20T19:26:25.881Z,10.43
2023-03-20T19:28:54.718Z,10.00
2023-03-20T19:31:22.944Z,9.13
2023-03-20T19:33:50.893Z,9.10
2023-03-20T19:36:27.175Z,10.50
2023-03-20T19:38:55.782Z,9.47
2023-03-20T19:41:23.392Z,9.83
2023-03-20T19:43:55.379Z,8.80
2023-03-20T19:46:41.562Z,11.20
2023-03-20T19:49:18.384Z,10.60
2023-03-20T19:51:48.790Z,10.83
2023-03-20T19:54:16.317Z,10.10
2023-03-20T19:56:43.807Z,8.87
2023-03-20T19:59:11.686Z,10.13
2023-03-20T20:01:39.129Z,10.50
2023-03-20T20:04:06.736Z,11.43
2023-03-20T20:06:34.138Z,9.53
2023-03-20T20:09:03.529Z,10.70
2023-03-20T20:11:30.943Z,10.13
2023-03-20T20:14:08.527Z,12.10
2023-03-20T20:16:37.744Z,10.43
2023-03-20T20:19:05.843Z,12.10
2023-03-20T20:24:22.680Z,12.27
2023-03-20T20:26:55.293Z,11.23
2023-03-20T20:29:28.082Z,10.50
2023-03-20T20:31:55.566Z,9.40
2023-03-20T20:40:00.213Z,7.43
2023-03-20T20:42:27.759Z,12.90
2023-03-20T20:44:55.169Z,11.67
2023-03-20T20:47:22.661Z,12.43
2023-03-20T20:49:50.074Z,14.60
2023-03-20T20:52:17.715Z,16.07
2023-03-20T20:54:45.205Z,13.03
2023-03-20T20:57:14.372Z,12.20
2023-03-20T20:59:42.058Z,12.43
2023-03-20T21:02:11.949Z,12.87
2023-03-20T21:04:40.485Z,12.73
2023-03-20T21:07:10.946Z,11.87
2023-03-20T21:09:38.982Z,11.50
2023-03-20T21:12:08.052Z,11.90
2023-03-20T21:14:37.131Z,12.33
2023-03-20T21:17:05.911Z,11.73
2023-03-20T21:19:35.470Z,11.60
2023-03-20T21:22:02.975Z,12.07
2023-03-20T21:24:33.956Z,14.60
2023-03-20T21:27:02.275Z,12.67
2023-03-20T21:29:29.699Z,12.03
2023-03-20T21:31:58.515Z,12.17
2023-03-20T21:34:26.142Z,12.13
2023-03-20T21:36:53.672Z,12.50
2023-03-20T21:39:21.550Z,11.33
2023-03-20T21:41:49.066Z,11.93
2023-03-20T21:44:24.630Z,12.00
2023-03-20T21:58:56.453Z,13.40
2023-03-20T22:07:32.018Z,11.97
2023-03-20T22:10:10.935Z,12.23
2023-03-20T22:18:31.007Z,11.30
2023-03-20T22:24:21.185Z,11.30
2023-03-20T22:29:48.334Z,10.80
2023-03-20T22:46:05.532Z,9.53
2023-03-20T22:48:36.136Z,9.67
2023-03-20T22:51:03.942Z,9.63
2023-03-20T22:53:33.131Z,9.10
2023-03-20T22:56:01.273Z,9.53
2023-03-20T22:58:28.740Z,9.53
2023-03-20T23:00:56.577Z,9.57
2023-03-20T23:03:42.447Z,9.50
2023-03-20T23:06:15.376Z,8.90
2023-03-20T23:08:50.664Z,9.47
2023-03-20T23:11:20.444Z,9.70
2023-03-20T23:13:47.918Z,9.53
2023-03-20T23:16:15.595Z,10.87
2023-03-20T23:18:43.726Z,10.07
2023-03-20T23:21:11.620Z,10.13
2023-03-20T23:23:39.431Z,10.10
2023-03-20T23:26:10.656Z,9.97
2023-03-20T23:28:39.166Z,10.20
2023-03-20T23:31:10.658Z,10.53
2023-03-20T23:33:38.977Z,9.80
2023-03-20T23:36:16.530Z,9.77
2023-03-20T23:38:52.404Z,9.57
2023-03-20T23:41:36.621Z,9.13
2023-03-20T23:44:08.712Z,8.37
2023-03-20T23:46:36.192Z,8.60
2023-03-20T23:49:03.817Z,9.20
2023-03-20T23:51:31.330Z,9.17
2023-03-20T23:53:58.713Z,8.83
2023-03-20T23:56:27.461Z,8.77
2023-03-20T23:59:01.163Z,8.73
